< < Back
Terminal Aerodrome Forecast


Current Version              Previous Versions:   1  2  3  4  5  6  7  8  9  

Terminal Aerodrome Forecast

365
FTUS42 KJAX 290545
TAFSSI
TAF
KSSI 290545Z 2906/3006 24007KT P6SM FEW250
     FM291300 27009KT P6SM FEW045 FEW250
     FM291900 16010G15KT P6SM SCT050
     FM300000 20009G15KT P6SM SCT050 SCT250=

Latest METAR

956
SAUS70 KWBC 300700 RRA
MTRSSI
METAR KSSI 300653Z AUTO 24007KT 10SM CLR 28/23 A2999 RMK AO2 SLP156
T02780233


USA.gov is the U.S. government's official web portal to all federal, state and local government web resources and services.